Bombinhas, Brazil
Current Conditions -  °F | °C
As of 5:30 PM on Sunday 21 Dec 2014 (Local Time) from SBNF Reporting Station
Thunderstorm Thunderstorm  
Wind Chill: 84°   Ceiling: 6000
Heat Index: 98°   Visibility: 4mi
Dew Point: 81°   Wind: 3mph
Humidity: 89%   Direction: 350°N
Pressure: NA   Gusts: NA
Location:  27.13°S, 48.53°W
Report Text: SBNF 211930Z 35003KT 7000 -TSRA FEW020 FEW035CB BKN060 29/27 Q1003
Loading
Personal Weather Stations






























Interactive Weather Map New forecast layout! Learn more

10-Day Weather Forecast

Advertisements
Track Severe Weather on mobile